createdAt,value
2018-10-07T00:00:55.286Z,1005
2018-10-07T00:05:55.020Z,1004.9
2018-10-07T00:10:54.969Z,1004.9
2018-10-07T00:15:54.882Z,1005.4
2018-10-07T00:20:55.718Z,1005.4
2018-10-07T00:25:55.573Z,1005.5
2018-10-07T00:30:55.450Z,1005.5
2018-10-07T00:35:55.197Z,1005.8
2018-10-07T00:40:55.132Z,1005.8
2018-10-07T00:45:54.981Z,1006.5
2018-10-07T00:50:55.720Z,1006.5
2018-10-07T00:55:55.433Z,1006.8
2018-10-07T01:00:55.308Z,1006.8
2018-10-07T01:05:55.229Z,1007
2018-10-07T01:10:54.889Z,1007
2018-10-07T01:15:55.689Z,1007.3
2018-10-07T01:20:55.461Z,1007.3
2018-10-07T01:25:55.339Z,1007.4
2018-10-07T01:30:55.237Z,1007.4
2018-10-07T01:35:55.016Z,1007.7
2018-10-07T01:40:55.948Z,1007.7
2018-10-07T01:45:55.856Z,1007.8
2018-10-07T01:50:55.560Z,1007.8
2018-10-07T01:55:55.238Z,1007.9
2018-10-07T02:00:55.130Z,1007.9
2018-10-07T02:05:54.982Z,1008.2
2018-10-07T02:10:54.907Z,1008.2
2018-10-07T02:15:54.913Z,1008.6
2018-10-07T02:20:55.866Z,1008.6
2018-10-07T02:25:55.588Z,1008.6
2018-10-07T02:30:55.522Z,1008.6
2018-10-07T02:35:55.628Z,1008.6
2018-10-07T02:40:55.392Z,1008.6
2018-10-07T02:45:55.242Z,1009.1
2018-10-07T02:50:55.094Z,1009.1
2018-10-07T02:55:55.772Z,1009.2
2018-10-07T03:00:55.636Z,1009.2
2018-10-07T03:05:54.988Z,1009.4
2018-10-07T03:10:55.927Z,1009.4
2018-10-07T03:15:55.797Z,1009.8
2018-10-07T03:20:55.576Z,1009.8
2018-10-07T03:25:55.321Z,1009.9
2018-10-07T03:30:55.158Z,1009.9
2018-10-07T03:35:54.967Z,1010.2
2018-10-07T03:40:55.749Z,1010.2
2018-10-07T03:45:55.516Z,1010.5
2018-10-07T03:50:55.326Z,1010.5
2018-10-07T03:55:55.139Z,1010.6
2018-10-07T04:00:55.132Z,1010.6
2018-10-07T04:05:55.166Z,1010.7
2018-10-07T04:10:55.129Z,1010.7
2018-10-07T04:15:55.932Z,1010.9
2018-10-07T04:20:55.981Z,1010.9
2018-10-07T04:25:55.910Z,1011
2018-10-07T04:30:55.496Z,1011
2018-10-07T04:35:55.469Z,1011.1
2018-10-07T04:40:55.352Z,1011.1
2018-10-07T04:45:55.142Z,1011.2
2018-10-07T04:50:55.671Z,1011.2
2018-10-07T04:55:55.681Z,1011.3
2018-10-07T05:00:55.524Z,1011.3
2018-10-07T05:05:55.592Z,1011.4
2018-10-07T05:10:55.513Z,1011.4
2018-10-07T05:15:55.344Z,1011.8
2018-10-07T05:20:55.174Z,1011.8
2018-10-07T05:25:56.036Z,1012
2018-10-07T05:30:55.761Z,1012
2018-10-07T05:35:55.649Z,1012.3
2018-10-07T05:40:55.411Z,1012.3
2018-10-07T05:45:55.239Z,1012.3
2018-10-07T05:50:55.978Z,1012.3
2018-10-07T05:55:55.773Z,1012.6
2018-10-07T06:00:55.771Z,1012.6
2018-10-07T06:05:55.456Z,1012.9
2018-10-07T06:10:55.312Z,1012.9
2018-10-07T06:15:55.207Z,1013.2
2018-10-07T06:20:55.962Z,1013.2
2018-10-07T06:25:55.751Z,1013.3
2018-10-07T06:30:55.636Z,1013.3
2018-10-07T06:35:55.427Z,1013.5
2018-10-07T06:40:55.356Z,1013.5
2018-10-07T06:45:56.342Z,1013.7
2018-10-07T06:50:56.183Z,1013.7
2018-10-07T06:55:55.986Z,1013.8
2018-10-07T07:00:55.857Z,1013.8
2018-10-07T07:05:55.989Z,1014
2018-10-07T07:10:55.742Z,1014
2018-10-07T07:15:55.426Z,1014.3
2018-10-07T07:20:55.232Z,1014.3
2018-10-07T07:25:56.104Z,1014.4
2018-10-07T07:30:56.027Z,1014.4
2018-10-07T07:35:55.777Z,1014.5
2018-10-07T07:40:55.564Z,1014.5
2018-10-07T07:45:55.391Z,1014.9
2018-10-07T07:50:56.214Z,1014.9
2018-10-07T07:55:55.967Z,1014.8
2018-10-07T08:00:55.771Z,1014.8
2018-10-07T08:05:56.109Z,1014.9
2018-10-07T08:10:55.941Z,1014.9
2018-10-07T08:15:55.766Z,1015.1
2018-10-07T08:20:55.607Z,1015.1
2018-10-07T08:25:55.876Z,1015.2
2018-10-07T08:30:55.745Z,1015.2
2018-10-07T08:35:55.416Z,1015.4
2018-10-07T08:40:56.145Z,1015.4
2018-10-07T08:45:55.889Z,1015.6
2018-10-07T08:50:55.571Z,1015.6
2018-10-07T08:55:55.395Z,1015.7
2018-10-07T09:00:56.298Z,1015.7
2018-10-07T09:05:55.571Z,1015.9
2018-10-07T09:10:55.441Z,1015.9
2018-10-07T09:15:56.294Z,1016.3
2018-10-07T09:20:56.182Z,1016.3
2018-10-07T09:25:55.909Z,1016.4
2018-10-07T09:30:55.714Z,1016.4
2018-10-07T09:35:55.516Z,1016.5
2018-10-07T09:40:56.269Z,1016.5
2018-10-07T09:45:55.971Z,1016.5
2018-10-07T09:50:55.770Z,1016.5
2018-10-07T09:55:55.628Z,1016.6
2018-10-07T10:00:55.958Z,1016.6
2018-10-07T10:05:56.211Z,1016.7
2018-10-07T10:10:55.990Z,1016.7
2018-10-07T10:15:55.764Z,1016.9
2018-10-07T10:20:55.652Z,1016.9
2018-10-07T10:25:55.391Z,1016.9
2018-10-07T10:30:56.217Z,1016.9
2018-10-07T10:35:56.192Z,1016.8
2018-10-07T10:40:55.987Z,1016.8
2018-10-07T10:45:55.695Z,1017
2018-10-07T10:50:55.494Z,1017
2018-10-07T10:55:55.501Z,1017
2018-10-07T11:00:56.467Z,1017
2018-10-07T11:05:56.272Z,1017
2018-10-07T11:10:55.883Z,1017
2018-10-07T11:15:55.770Z,1017
2018-10-07T11:20:55.711Z,1017
2018-10-07T11:25:56.395Z,1017
2018-10-07T11:30:56.273Z,1017
2018-10-07T11:35:56.039Z,1017.1
2018-10-07T11:40:55.997Z,1017.1
2018-10-07T11:45:56.040Z,1017.1
2018-10-07T11:50:56.141Z,1017.1
2018-10-07T11:55:56.046Z,1017.1
2018-10-07T12:00:56.153Z,1017.1
2018-10-07T12:05:55.521Z,1017.4
2018-10-07T12:10:56.391Z,1017.4
2018-10-07T12:15:56.105Z,1017.5
2018-10-07T12:20:55.906Z,1017.5
2018-10-07T12:25:55.618Z,1017.4
2018-10-07T12:30:56.479Z,1017.4
2018-10-07T12:35:55.605Z,1017.5
2018-10-07T12:40:56.462Z,1017.5
2018-10-07T12:45:56.204Z,1017.5
2018-10-07T12:50:55.932Z,1017.5
2018-10-07T12:55:55.864Z,1017.5
2018-10-07T13:00:56.721Z,1017.5
2018-10-07T13:05:55.740Z,1017.7
2018-10-07T13:10:56.546Z,1017.7
2018-10-07T13:15:56.351Z,1017.8
2018-10-07T13:20:56.310Z,1017.8
2018-10-07T13:25:55.689Z,1017.8
2018-10-07T13:30:55.932Z,1017.8
2018-10-07T13:35:55.825Z,1018
2018-10-07T13:40:56.626Z,1018
2018-10-07T13:45:56.407Z,1018.1
2018-10-07T13:50:56.208Z,1018.1
2018-10-07T13:55:56.173Z,1018.2
2018-10-07T14:00:55.970Z,1018.2
2018-10-07T14:05:55.985Z,1018.3
2018-10-07T14:10:56.384Z,1018.3
2018-10-07T14:15:56.068Z,1018.3
2018-10-07T14:20:55.883Z,1018.3
2018-10-07T14:25:56.601Z,1018.4
2018-10-07T14:30:56.465Z,1018.4
2018-10-07T14:35:56.360Z,1018.6
2018-10-07T14:40:56.273Z,1018.6
2018-10-07T14:45:55.982Z,1018.6
2018-10-07T14:50:55.851Z,1018.6
2018-10-07T14:55:56.646Z,1018.6
2018-10-07T15:00:56.634Z,1018.6
2018-10-07T15:05:56.625Z,1018.5
2018-10-07T15:10:56.046Z,1018.5
2018-10-07T15:15:55.890Z,1018.6
2018-10-07T15:20:56.703Z,1018.6
2018-10-07T15:25:56.193Z,1018.6
2018-10-07T15:30:56.232Z,1018.6
2018-10-07T15:35:55.964Z,1018.7
2018-10-07T15:40:55.872Z,1018.7
2018-10-07T15:45:56.657Z,1018.8
2018-10-07T15:50:56.465Z,1018.8
2018-10-07T15:55:56.482Z,1018.8
2018-10-07T16:00:56.787Z,1018.8
2018-10-07T16:05:56.734Z,1018.9
2018-10-07T16:10:55.996Z,1018.9
2018-10-07T16:15:56.761Z,1019.2
2018-10-07T16:20:56.603Z,1019.2
2018-10-07T16:25:56.436Z,1019.2
2018-10-07T16:30:56.250Z,1019.2
2018-10-07T16:35:55.988Z,1019.3
2018-10-07T16:40:56.802Z,1019.3
2018-10-07T16:45:56.565Z,1019.5
2018-10-07T16:50:56.365Z,1019.5
2018-10-07T16:55:56.121Z,1019.5
2018-10-07T17:00:56.934Z,1019.5
2018-10-07T17:05:56.503Z,1019.4
2018-10-07T17:10:56.785Z,1019.4
2018-10-07T17:15:56.498Z,1019.7
2018-10-07T17:20:56.264Z,1019.7
2018-10-07T17:25:55.983Z,1019.7
2018-10-07T17:30:56.878Z,1019.7
2018-10-07T17:35:57.692Z,1019.7
2018-10-07T17:40:56.435Z,1019.7
2018-10-07T17:45:56.235Z,1019.8
2018-10-07T17:50:55.969Z,1019.8
2018-10-07T17:55:56.685Z,1019.9
2018-10-07T18:00:56.546Z,1019.9
2018-10-07T18:05:56.482Z,1020
2018-10-07T18:10:56.775Z,1020
2018-10-07T18:15:56.524Z,1020.2
2018-10-07T18:20:56.348Z,1020.2
2018-10-07T18:25:56.094Z,1020.2
2018-10-07T18:30:56.993Z,1020.2
2018-10-07T18:35:56.762Z,1020.3
2018-10-07T18:40:56.521Z,1020.3
2018-10-07T18:45:56.314Z,1020.5
2018-10-07T18:50:56.103Z,1020.5
2018-10-07T18:55:56.912Z,1020.5
2018-10-07T19:00:56.777Z,1020.5
2018-10-07T19:05:56.899Z,1020.6
2018-10-07T19:10:56.998Z,1020.6
2018-10-07T19:15:56.924Z,1020.6
2018-10-07T19:20:56.882Z,1020.6
2018-10-07T19:25:56.671Z,1020.6
2018-10-07T19:30:56.462Z,1020.6
2018-10-07T19:35:56.583Z,1020.6
2018-10-07T19:40:56.533Z,1020.6
2018-10-07T19:45:56.325Z,1020.8
2018-10-07T19:50:56.112Z,1020.8
2018-10-07T19:55:56.121Z,1020.9
2018-10-07T20:00:57.063Z,1020.9
2018-10-07T20:05:56.976Z,1021
2018-10-07T20:10:56.423Z,1021
2018-10-07T20:15:56.157Z,1020.9
2018-10-07T20:20:56.910Z,1020.9
2018-10-07T20:25:56.712Z,1020.9
2018-10-07T20:30:56.455Z,1020.9
2018-10-07T20:35:56.449Z,1020.9
2018-10-07T20:40:56.271Z,1020.9
2018-10-07T20:45:57.049Z,1021
2018-10-07T20:50:56.794Z,1021
2018-10-07T20:55:56.788Z,1021
2018-10-07T21:00:56.631Z,1021
2018-10-07T21:05:56.439Z,1020.9
2018-10-07T21:10:57.060Z,1020.9
2018-10-07T21:15:56.834Z,1020.9
2018-10-07T21:20:56.596Z,1020.9
2018-10-07T21:25:56.312Z,1020.9
2018-10-07T21:30:57.178Z,1020.9
2018-10-07T21:35:56.972Z,1020.9
2018-10-07T21:40:56.708Z,1020.9
2018-10-07T21:45:56.547Z,1020.6
2018-10-07T21:50:56.284Z,1020.6
2018-10-07T21:55:57.070Z,1020.5
2018-10-07T22:00:57.231Z,1020.5
2018-10-07T22:05:56.999Z,1020.4
2018-10-07T22:10:56.966Z,1020.4
2018-10-07T22:15:56.678Z,1020.4
2018-10-07T22:20:56.393Z,1020.4
2018-10-07T22:25:56.270Z,1020.4
2018-10-07T22:30:56.999Z,1020.4
2018-10-07T22:35:56.635Z,1020.4
2018-10-07T22:40:56.461Z,1020.4
2018-10-07T22:45:57.143Z,1020.5
2018-10-07T22:50:56.925Z,1020.5
2018-10-07T22:55:56.937Z,1020.6
2018-10-07T23:00:56.776Z,1020.6
2018-10-07T23:05:56.858Z,1020.8
2018-10-07T23:10:57.043Z,1020.8
2018-10-07T23:15:56.835Z,1020.9
2018-10-07T23:20:56.588Z,1020.9
2018-10-07T23:25:56.431Z,1020.9
2018-10-07T23:30:57.206Z,1020.9
2018-10-07T23:35:57.095Z,1020.8
2018-10-07T23:40:56.880Z,1020.8
2018-10-07T23:45:56.719Z,1020.7
2018-10-07T23:50:56.551Z,1020.7
2018-10-07T23:55:57.403Z,1020.7
